createdAt,value
2022-11-19T00:05:26.013Z,100999.25
2022-11-19T00:13:01.230Z,101001.84
2022-11-19T00:20:36.730Z,101009.25
2022-11-19T00:28:11.947Z,101017.50
2022-11-19T00:35:45.834Z,101011.50
2022-11-19T00:43:41.393Z,101026.41
2022-11-19T00:51:16.307Z,101029.59
2022-11-19T00:58:52.861Z,101031.31
2022-11-19T01:06:27.510Z,101035.41
2022-11-19T01:14:03.711Z,101036.09
2022-11-19T01:21:38.056Z,101043.72
2022-11-19T01:29:13.245Z,101034.75
2022-11-19T01:36:47.162Z,101038.84
2022-11-19T01:44:57.509Z,101039.53
2022-11-19T01:52:31.714Z,101042.16
2022-11-19T02:00:08.888Z,101045.13
2022-11-19T02:07:46.313Z,101050.13
2022-11-19T02:15:33.372Z,101060.25
2022-11-19T02:23:36.072Z,101065.47
2022-11-19T02:31:16.095Z,101076.16
2022-11-19T02:38:54.753Z,101075.94
2022-11-19T02:46:30.207Z,101054.47
2022-11-19T02:54:06.112Z,101041.75
2022-11-19T03:02:02.459Z,101057.34
2022-11-19T03:09:40.632Z,101052.13
2022-11-19T03:17:18.447Z,101055.59
2022-11-19T03:25:00.204Z,101059.72
2022-11-19T03:32:38.841Z,101058.56
2022-11-19T03:40:16.367Z,101067.75
2022-11-19T03:47:53.203Z,101081.59
2022-11-19T03:55:32.865Z,101088.75
2022-11-19T04:03:08.156Z,101090.34
2022-11-19T04:10:42.226Z,101086.94
2022-11-19T04:18:17.434Z,101093.19
2022-11-19T04:25:51.538Z,101089.91
2022-11-19T04:33:26.730Z,101081.16
2022-11-19T04:41:00.591Z,101084.56
2022-11-19T04:48:36.289Z,101092.50
2022-11-19T04:56:10.259Z,101078.41
2022-11-19T05:03:45.489Z,101060.25
2022-11-19T05:11:19.382Z,101066.41
2022-11-19T05:18:54.652Z,101066.50
2022-11-19T05:26:28.522Z,101057.75
2022-11-19T05:34:03.740Z,101060.38
2022-11-19T05:41:37.818Z,101058.22
2022-11-19T05:49:13.206Z,101051.66
2022-11-19T05:56:47.393Z,101054.47
2022-11-19T06:04:22.567Z,101071.94
2022-11-19T06:11:56.388Z,101069.13
2022-11-19T06:19:31.618Z,101075.94
2022-11-19T06:27:05.407Z,101073.09
2022-11-19T06:34:40.702Z,101085.03
2022-11-19T06:42:32.148Z,101081.50
2022-11-19T06:50:08.885Z,101075.47
2022-11-19T06:57:42.630Z,101065.94
2022-11-19T07:05:18.690Z,101064.03
2022-11-19T07:12:52.509Z,101068.09
2022-11-19T07:20:27.654Z,101077.84
2022-11-19T07:28:01.500Z,101084.91
2022-11-19T07:35:36.760Z,101073.44
2022-11-19T07:43:10.614Z,101067.53
2022-11-19T07:50:56.208Z,101080.69
2022-11-19T07:58:30.837Z,101072.44
2022-11-19T08:06:07.432Z,101076.47
2022-11-19T08:13:41.573Z,101053.56
2022-11-19T08:21:16.725Z,101043.97
2022-11-19T08:28:50.682Z,101030.78
2022-11-19T08:36:25.876Z,101035.88
2022-11-19T08:44:01.099Z,101029.94
2022-11-19T08:51:36.303Z,101024.59
2022-11-19T08:59:10.551Z,101033.47
2022-11-19T09:06:45.890Z,101034.03
2022-11-19T09:14:20.019Z,101013.38
2022-11-19T09:21:55.437Z,101021.28
2022-11-19T09:29:29.248Z,101021.47
2022-11-19T09:37:04.624Z,101032.53
2022-11-19T09:44:53.013Z,101030.84
2022-11-19T09:52:33.841Z,101033.78
2022-11-19T10:00:10.911Z,101026.81
2022-11-19T10:07:59.077Z,101014.59
2022-11-19T10:15:38.496Z,100996.13
2022-11-19T10:23:18.556Z,100983.34
2022-11-19T10:30:55.815Z,100981.63
2022-11-19T10:38:35.269Z,100966.91
2022-11-19T10:46:14.264Z,100969.91
2022-11-19T10:53:50.385Z,100964.19
2022-11-19T11:01:30.194Z,100961.25
2022-11-19T11:09:05.737Z,100952.50
2022-11-19T11:16:46.870Z,100941.19
2022-11-19T11:24:23.008Z,100930.75
2022-11-19T11:31:56.884Z,100910.38
2022-11-19T11:39:35.699Z,100900.34
2022-11-19T11:47:14.351Z,100896.47
2022-11-19T11:54:58.515Z,100889.84
2022-11-19T12:02:34.621Z,100875.75
2022-11-19T12:10:25.128Z,100883.53
2022-11-19T12:18:07.768Z,100891.66
2022-11-19T12:25:54.640Z,100900.47
2022-11-19T12:33:45.475Z,100897.72
2022-11-19T12:41:38.282Z,100885.41
2022-11-19T12:49:31.869Z,100888.19
2022-11-19T12:57:23.965Z,100886.41
2022-11-19T13:05:06.123Z,100885.56
2022-11-19T13:12:45.203Z,100880.00
2022-11-19T13:20:25.900Z,100872.78
2022-11-19T13:28:05.250Z,100869.97
2022-11-19T13:35:46.182Z,100868.75
2022-11-19T13:43:40.816Z,100863.25
2022-11-19T13:51:25.576Z,100864.69
2022-11-19T13:59:00.943Z,100857.28
2022-11-19T14:07:05.934Z,100858.19
2022-11-19T14:15:23.509Z,100852.63
2022-11-19T14:23:15.660Z,100854.69
2022-11-19T14:31:05.774Z,100868.53
2022-11-19T14:38:45.291Z,100854.28
2022-11-19T14:46:27.602Z,100851.81
2022-11-19T14:54:07.136Z,100846.47
2022-11-19T15:01:59.265Z,100843.16
2022-11-19T15:09:52.642Z,100848.16
2022-11-19T15:17:29.294Z,100845.75
2022-11-19T15:25:28.088Z,100841.13
2022-11-19T15:33:19.487Z,100839.19
2022-11-19T15:40:57.857Z,100830.22
2022-11-19T15:48:40.521Z,100828.94
2022-11-19T15:56:14.710Z,100831.22
2022-11-19T16:03:52.011Z,100836.09
2022-11-19T16:11:47.766Z,100822.44
2022-11-19T16:19:23.684Z,100820.66
2022-11-19T16:26:58.151Z,100811.00
2022-11-19T16:34:36.766Z,100817.19
2022-11-19T16:42:22.501Z,100813.22
2022-11-19T16:50:01.812Z,100807.56
2022-11-19T16:57:36.244Z,100812.81
2022-11-19T17:05:15.552Z,100822.47
2022-11-19T17:12:51.362Z,100810.94
2022-11-19T17:20:53.081Z,100802.06
2022-11-19T17:28:35.359Z,100808.31
2022-11-19T17:36:14.525Z,100813.91
2022-11-19T17:44:05.836Z,100824.59
2022-11-19T17:51:41.179Z,100828.84
2022-11-19T17:59:15.112Z,100826.22
2022-11-19T18:06:50.704Z,100830.44
2022-11-19T18:14:24.683Z,100818.00
2022-11-19T18:22:00.769Z,100820.72
2022-11-19T18:29:34.913Z,100817.38
2022-11-19T18:37:10.348Z,100815.53
2022-11-19T18:44:46.079Z,100818.34
2022-11-19T18:52:21.759Z,100816.69
2022-11-19T18:59:55.770Z,100824.59
2022-11-19T19:07:31.321Z,100820.31
2022-11-19T19:15:05.848Z,100822.44
2022-11-19T19:22:41.446Z,100827.78
2022-11-19T19:30:16.235Z,100824.25
2022-11-19T19:37:51.705Z,100829.59
2022-11-19T19:45:26.038Z,100829.81
2022-11-19T19:53:01.879Z,100830.75
2022-11-19T20:00:36.040Z,100835.25
2022-11-19T20:08:11.677Z,100839.84
2022-11-19T20:15:45.478Z,100853.00
2022-11-19T20:23:20.815Z,100853.66
2022-11-19T20:31:03.152Z,100858.91
2022-11-19T20:38:39.119Z,100867.31
2022-11-19T20:46:15.866Z,100866.16
2022-11-19T20:53:51.255Z,100869.19
2022-11-19T21:01:31.329Z,100869.34
2022-11-19T21:09:07.535Z,100864.03
2022-11-19T21:16:41.436Z,100864.78
2022-11-19T21:24:16.862Z,100861.31
2022-11-19T21:31:50.934Z,100863.03
2022-11-19T21:39:26.400Z,100850.38
2022-11-19T21:47:00.577Z,100848.75
2022-11-19T21:54:37.029Z,100843.41
2022-11-19T22:02:11.969Z,100855.88
2022-11-19T22:09:47.249Z,100841.75
2022-11-19T22:17:21.197Z,100835.69
2022-11-19T22:24:56.384Z,100826.97
2022-11-19T22:32:30.221Z,100832.22
2022-11-19T22:40:06.331Z,100821.88
2022-11-19T22:47:40.182Z,100812.34
2022-11-19T22:55:16.641Z,100813.00
2022-11-19T23:02:50.487Z,100810.69
2022-11-19T23:10:25.863Z,100812.25
2022-11-19T23:17:59.688Z,100803.47
2022-11-19T23:25:35.052Z,100807.06
2022-11-19T23:33:09.020Z,100807.81
2022-11-19T23:40:44.285Z,100804.28
2022-11-19T23:48:18.063Z,100801.50
2022-11-19T23:55:53.472Z,100798.94
